createdAt,value
2022-10-05T00:02:18.328Z,100353.78
2022-10-05T00:05:20.499Z,100353.09
2022-10-05T00:08:14.905Z,100358.94
2022-10-05T00:11:02.970Z,100355.44
2022-10-05T00:13:52.733Z,100362.09
2022-10-05T00:16:40.662Z,100358.19
2022-10-05T00:19:31.894Z,100360.47
2022-10-05T00:22:21.689Z,100361.41
2022-10-05T00:25:14.297Z,100353.97
2022-10-05T00:28:02.317Z,100357.88
2022-10-05T00:30:51.588Z,100363.25
2022-10-05T00:33:41.461Z,100368.72
2022-10-05T00:36:29.358Z,100371.47
2022-10-05T00:39:19.020Z,100371.66
2022-10-05T00:42:21.676Z,100363.63
2022-10-05T00:45:16.149Z,100361.44
2022-10-05T00:48:21.612Z,100362.47
2022-10-05T00:51:20.293Z,100356.53
2022-10-05T00:54:22.061Z,100345.00
2022-10-05T00:57:31.048Z,100338.63
2022-10-05T01:00:24.373Z,100338.13
2022-10-05T01:03:19.699Z,100336.47
2022-10-05T01:06:17.529Z,100325.81
2022-10-05T01:09:15.821Z,100330.19
2022-10-05T01:12:10.284Z,100329.38
2022-10-05T01:15:06.071Z,100320.47
2022-10-05T01:18:00.915Z,100323.28
2022-10-05T01:21:00.719Z,100320.97
2022-10-05T01:24:24.447Z,100320.25
2022-10-05T01:27:22.501Z,100321.03
2022-10-05T01:30:14.484Z,100260.06
2022-10-05T01:33:13.064Z,100319.63
2022-10-05T01:36:07.410Z,100311.09
2022-10-05T01:39:05.510Z,100324.06
2022-10-05T01:42:02.626Z,100330.59
2022-10-05T01:44:57.347Z,100339.31
2022-10-05T01:47:50.409Z,100328.38
2022-10-05T01:50:54.608Z,100330.84
2022-10-05T01:53:56.733Z,100331.72
2022-10-05T01:57:03.124Z,100329.78
2022-10-05T02:00:07.543Z,100331.81
2022-10-05T02:03:12.507Z,100335.72
2022-10-05T02:06:07.050Z,100333.38
2022-10-05T02:09:03.519Z,100340.13
2022-10-05T02:11:58.485Z,100328.50
2022-10-05T02:14:50.786Z,100328.03
2022-10-05T02:17:45.239Z,100329.59
2022-10-05T02:20:38.929Z,100325.28
2022-10-05T02:23:32.087Z,100322.91
2022-10-05T02:26:20.563Z,100305.53
2022-10-05T02:29:11.383Z,100296.88
2022-10-05T02:32:04.382Z,100289.41
2022-10-05T02:35:00.474Z,100289.38
2022-10-05T02:37:57.768Z,100281.38
2022-10-05T02:40:55.617Z,100274.81
2022-10-05T02:43:51.493Z,100269.31
2022-10-05T02:46:50.841Z,100268.88
2022-10-05T02:49:46.297Z,100266.69
2022-10-05T02:52:46.461Z,100259.81
2022-10-05T02:55:48.978Z,100258.31
2022-10-05T02:58:45.286Z,100274.50
2022-10-05T03:01:41.639Z,100264.72
2022-10-05T03:04:39.115Z,100272.81
2022-10-05T03:07:33.304Z,100260.88
2022-10-05T03:10:29.735Z,100264.09
2022-10-05T03:13:27.041Z,100258.22
2022-10-05T03:16:41.243Z,100246.38
2022-10-05T03:19:40.682Z,100232.91
2022-10-05T03:22:40.831Z,100235.34
2022-10-05T03:25:46.498Z,100235.25
2022-10-05T03:28:51.559Z,100246.28
2022-10-05T03:31:44.713Z,100242.41
2022-10-05T03:34:39.743Z,100230.28
2022-10-05T03:37:38.341Z,100252.91
2022-10-05T03:40:33.237Z,100237.84
2022-10-05T03:43:41.715Z,100264.34
2022-10-05T03:46:44.263Z,100262.78
2022-10-05T03:49:48.878Z,100269.13
2022-10-05T03:52:42.159Z,100264.72
2022-10-05T03:55:36.625Z,100277.47
2022-10-05T03:58:29.502Z,100283.13
2022-10-05T04:01:24.461Z,100283.28
2022-10-05T04:04:23.893Z,100281.03
2022-10-05T04:07:20.240Z,100279.59
2022-10-05T04:10:14.713Z,100274.66
2022-10-05T04:13:07.866Z,100283.63
2022-10-05T04:16:03.448Z,100274.22
2022-10-05T04:19:00.096Z,100274.44
2022-10-05T04:21:53.194Z,100283.97
2022-10-05T04:24:46.255Z,100259.16
2022-10-05T04:27:39.776Z,100270.09
2022-10-05T04:30:31.579Z,100275.41
2022-10-05T04:33:19.701Z,100276.56
2022-10-05T04:36:23.049Z,100279.47
2022-10-05T04:39:23.079Z,100287.03
2022-10-05T04:42:17.592Z,100277.75
2022-10-05T04:45:15.487Z,100284.63
2022-10-05T04:48:27.943Z,100281.66
2022-10-05T04:51:32.518Z,100279.44
2022-10-05T04:54:31.546Z,100288.19
2022-10-05T04:57:24.499Z,100289.47
2022-10-05T05:00:23.657Z,100286.41
2022-10-05T05:03:32.930Z,100286.63
2022-10-05T05:06:31.096Z,100286.44
2022-10-05T05:09:48.313Z,100281.56
2022-10-05T05:12:45.030Z,100279.72
2022-10-05T05:15:46.954Z,100299.06
2022-10-05T05:18:53.806Z,100219.44
2022-10-05T05:21:50.626Z,100294.50
2022-10-05T05:24:50.188Z,100308.09
2022-10-05T05:27:43.781Z,100304.94
2022-10-05T05:30:43.680Z,100311.66
2022-10-05T05:33:41.904Z,100312.50
2022-10-05T05:36:49.230Z,100332.34
2022-10-05T05:39:51.252Z,100320.56
2022-10-05T05:42:49.480Z,100334.03
2022-10-05T05:45:42.892Z,100345.25
2022-10-05T05:48:38.831Z,100347.16
2022-10-05T05:51:33.815Z,100351.28
2022-10-05T05:54:28.564Z,100347.13
2022-10-05T05:57:23.226Z,100360.72
2022-10-05T06:00:21.517Z,100357.69
2022-10-05T06:03:21.765Z,100354.53
2022-10-05T06:05:55.529Z,100358.88
2022-10-05T06:08:30.804Z,100358.13
2022-10-05T06:11:11.016Z,100359.25
2022-10-05T06:13:42.784Z,100350.00
2022-10-05T06:16:20.540Z,100354.94
2022-10-05T06:18:53.020Z,100362.56
2022-10-05T06:21:27.246Z,100355.00
2022-10-05T06:23:59.883Z,100358.69
2022-10-05T06:26:43.068Z,100362.16
2022-10-05T06:29:17.777Z,100329.06
2022-10-05T06:32:00.726Z,100370.84
2022-10-05T06:34:46.691Z,100368.16
2022-10-05T06:37:29.306Z,100366.06
2022-10-05T06:40:12.441Z,100373.06
2022-10-05T06:42:49.919Z,100361.00
2022-10-05T06:45:31.717Z,100358.66
2022-10-05T06:48:26.748Z,100359.81
2022-10-05T06:51:32.193Z,100356.81
2022-10-05T06:54:33.225Z,100359.31
2022-10-05T06:57:07.988Z,100356.41
2022-10-05T06:59:45.404Z,100359.63
2022-10-05T07:02:26.711Z,100361.34
2022-10-05T07:05:16.626Z,100358.00
2022-10-05T07:07:53.464Z,100356.94
2022-10-05T07:10:31.544Z,100347.53
2022-10-05T07:13:14.684Z,100342.88
2022-10-05T07:15:49.137Z,100344.94
2022-10-05T07:18:32.584Z,100346.59
2022-10-05T07:21:08.390Z,100353.41
2022-10-05T07:23:48.957Z,100346.41
2022-10-05T07:26:26.697Z,100353.66
2022-10-05T07:29:29.844Z,100350.19
2022-10-05T07:32:10.805Z,100357.78
2022-10-05T07:34:50.581Z,100361.34
2022-10-05T07:37:39.319Z,100364.50
2022-10-05T07:40:16.021Z,100369.66
2022-10-05T07:42:57.079Z,100370.88
2022-10-05T07:45:32.572Z,100370.88
2022-10-05T07:48:13.285Z,100368.50
2022-10-05T07:50:53.632Z,100376.00
2022-10-05T07:53:25.875Z,100337.66
2022-10-05T07:55:56.799Z,100378.75
2022-10-05T07:58:29.589Z,100376.78
2022-10-05T08:01:08.003Z,100341.19
2022-10-05T08:03:47.454Z,100380.69
2022-10-05T08:06:31.264Z,100376.28
2022-10-05T08:09:05.938Z,100375.56
2022-10-05T08:11:43.662Z,100376.28
2022-10-05T08:14:17.859Z,100372.31
2022-10-05T08:16:48.330Z,100370.41
2022-10-05T08:19:22.695Z,100369.97
2022-10-05T08:21:59.800Z,100334.75
2022-10-05T08:24:40.941Z,100362.34
2022-10-05T08:27:16.412Z,100360.38
2022-10-05T08:29:54.661Z,100365.41
2022-10-05T08:32:25.800Z,100357.09
2022-10-05T08:35:01.860Z,100346.75
2022-10-05T08:37:35.469Z,100351.44
2022-10-05T08:40:30.874Z,100352.63
2022-10-05T08:43:20.458Z,100349.75
2022-10-05T08:46:19.601Z,100356.34
2022-10-05T08:49:18.216Z,100358.38
2022-10-05T08:52:08.492Z,100358.69
2022-10-05T08:54:47.900Z,100364.94
2022-10-05T08:57:50.038Z,100361.94
2022-10-05T09:00:20.254Z,100357.53
2022-10-05T09:03:20.117Z,100355.22
2022-10-05T09:06:17.318Z,100358.38
2022-10-05T09:09:06.183Z,100342.47
2022-10-05T09:11:37.269Z,100343.53
2022-10-05T09:14:31.928Z,100355.47
2022-10-05T09:17:23.995Z,100348.25
2022-10-05T09:20:10.661Z,100353.41
2022-10-05T09:22:58.851Z,100354.28
2022-10-05T09:25:42.830Z,100362.88
2022-10-05T09:28:26.227Z,100360.50
2022-10-05T09:31:04.201Z,100355.16
2022-10-05T09:34:03.853Z,100359.66
2022-10-05T09:37:07.084Z,100347.69
2022-10-05T09:40:17.392Z,100348.66
2022-10-05T09:43:03.488Z,100312.31
2022-10-05T09:45:45.257Z,100344.97
2022-10-05T09:48:52.494Z,100354.09
2022-10-05T09:51:54.607Z,100354.56
2022-10-05T09:54:49.090Z,100346.72
2022-10-05T09:57:35.983Z,100337.69
2022-10-05T10:00:21.571Z,100337.19
2022-10-05T10:03:12.888Z,100342.25
2022-10-05T10:06:13.567Z,100336.97
2022-10-05T10:08:53.675Z,100331.81
2022-10-05T10:11:41.423Z,100322.50
2022-10-05T10:14:21.059Z,100319.84
2022-10-05T10:17:09.028Z,100325.25
2022-10-05T10:20:14.910Z,100330.31
2022-10-05T10:23:03.665Z,100328.75
2022-10-05T10:25:49.523Z,100321.09
2022-10-05T10:28:45.393Z,100329.78
2022-10-05T10:31:29.451Z,100329.84
2022-10-05T10:34:11.260Z,100327.63
2022-10-05T10:37:00.789Z,100324.97
2022-10-05T10:39:45.089Z,100333.84
2022-10-05T10:42:32.655Z,100315.25
2022-10-05T10:45:20.530Z,100316.59
2022-10-05T10:48:11.385Z,100311.56
2022-10-05T10:51:13.225Z,100298.28
2022-10-05T10:54:09.584Z,100325.53
2022-10-05T10:56:49.157Z,100307.81
2022-10-05T11:00:19.825Z,100299.06
2022-10-05T11:03:02.303Z,100290.84
2022-10-05T11:05:38.753Z,100310.22
2022-10-05T11:08:39.626Z,100293.44
2022-10-05T11:11:27.918Z,100296.97
2022-10-05T11:14:27.903Z,100292.53
2022-10-05T11:17:26.222Z,100297.19
2022-10-05T11:20:09.165Z,100293.25
2022-10-05T11:22:54.998Z,100289.28
2022-10-05T11:25:50.522Z,100283.13
2022-10-05T11:28:35.591Z,100288.44
2022-10-05T11:31:29.881Z,100288.38
2022-10-05T11:34:13.835Z,100290.56
2022-10-05T11:37:10.551Z,100275.78
2022-10-05T11:39:44.386Z,100276.03
2022-10-05T11:42:39.919Z,100274.31
2022-10-05T11:45:31.528Z,100267.44
2022-10-05T11:48:13.898Z,100265.31
2022-10-05T11:50:51.842Z,100255.88
2022-10-05T11:53:25.327Z,100259.97
2022-10-05T11:56:04.612Z,100249.16
2022-10-05T11:58:37.519Z,100241.75
2022-10-05T12:01:16.626Z,100232.59
2022-10-05T12:03:54.275Z,100236.53
2022-10-05T12:06:35.989Z,100231.41
2022-10-05T12:09:18.120Z,100231.00
2022-10-05T12:11:58.432Z,100217.69
2022-10-05T12:14:41.095Z,100219.44
2022-10-05T12:17:20.198Z,100211.13
2022-10-05T12:19:52.262Z,100217.06
2022-10-05T12:22:22.772Z,100212.84
2022-10-05T12:25:03.760Z,100218.72
2022-10-05T12:27:38.809Z,100215.94
2022-10-05T12:30:15.338Z,100213.13
2022-10-05T12:32:55.885Z,100213.28
2022-10-05T12:35:47.392Z,100213.13
2022-10-05T12:38:24.794Z,100212.56
2022-10-05T12:41:05.224Z,100198.69
2022-10-05T12:43:41.309Z,100192.00
2022-10-05T12:46:21.926Z,100196.00
2022-10-05T12:49:08.842Z,100192.09
2022-10-05T12:51:42.347Z,100193.56
2022-10-05T12:54:21.614Z,100191.28
2022-10-05T12:56:55.709Z,100170.28
2022-10-05T12:59:34.706Z,100198.47
2022-10-05T13:02:12.706Z,100190.88
2022-10-05T13:04:49.930Z,100181.16
2022-10-05T13:07:35.954Z,100187.84
2022-10-05T13:10:17.057Z,100185.03
2022-10-05T13:12:55.770Z,100192.31
2022-10-05T13:15:30.634Z,100159.03
2022-10-05T13:18:12.776Z,100171.88
2022-10-05T13:20:47.856Z,100163.03
2022-10-05T13:23:23.568Z,100180.75
2022-10-05T13:25:57.414Z,100144.66
2022-10-05T13:28:32.296Z,100174.59
2022-10-05T13:31:07.277Z,100174.84
2022-10-05T13:33:58.455Z,100171.19
2022-10-05T13:36:38.565Z,100174.81
2022-10-05T13:39:19.068Z,100163.63
2022-10-05T13:41:55.073Z,100175.38
2022-10-05T13:44:30.758Z,100167.22
2022-10-05T13:47:03.083Z,100161.09
2022-10-05T13:49:40.002Z,100150.16
2022-10-05T13:52:21.430Z,100156.00
2022-10-05T13:54:56.623Z,100152.09
2022-10-05T13:57:44.915Z,100146.59
2022-10-05T14:00:18.801Z,100153.69
2022-10-05T14:02:51.499Z,100145.00
2022-10-05T14:05:21.862Z,100139.91
2022-10-05T14:07:53.555Z,100140.03
2022-10-05T14:10:35.017Z,100145.75
2022-10-05T14:13:17.655Z,100130.25
2022-10-05T14:15:59.405Z,100135.84
2022-10-05T14:18:30.811Z,100123.44
2022-10-05T14:21:03.185Z,100132.59
2022-10-05T14:23:32.239Z,100125.13
2022-10-05T14:26:04.185Z,100121.97
2022-10-05T14:28:33.920Z,100125.41
2022-10-05T14:31:03.221Z,100124.16
2022-10-05T14:33:35.794Z,100137.06
2022-10-05T14:36:04.006Z,100133.72
2022-10-05T14:38:36.999Z,100129.78
2022-10-05T14:41:17.601Z,100124.97
2022-10-05T14:43:55.872Z,100128.09
2022-10-05T14:46:27.887Z,100125.72
2022-10-05T14:49:13.457Z,100122.34
2022-10-05T14:51:42.171Z,100120.53
2022-10-05T14:54:25.707Z,100118.34
2022-10-05T14:57:04.514Z,100119.72
2022-10-05T15:00:01.656Z,100127.63
2022-10-05T15:02:55.494Z,100109.66
2022-10-05T15:05:31.155Z,100116.66
2022-10-05T15:08:06.356Z,100099.50
2022-10-05T15:10:41.451Z,100050.34
2022-10-05T15:13:16.542Z,100077.31
2022-10-05T15:15:50.862Z,100105.81
2022-10-05T15:18:32.008Z,100108.91
2022-10-05T15:21:23.946Z,100112.28
2022-10-05T15:23:55.172Z,100080.97
2022-10-05T15:26:36.117Z,100106.38
2022-10-05T15:29:18.619Z,100101.84
2022-10-05T15:31:55.795Z,100102.47
2022-10-05T15:34:31.956Z,100100.47
2022-10-05T15:37:10.674Z,100097.94
2022-10-05T15:39:45.253Z,100112.88
2022-10-05T15:42:17.926Z,100092.44
2022-10-05T15:44:59.714Z,100092.13
2022-10-05T15:47:46.080Z,100097.56
2022-10-05T15:50:21.751Z,100091.75
2022-10-05T15:52:54.007Z,100090.94
2022-10-05T15:55:27.742Z,100084.44
2022-10-05T15:58:16.346Z,100092.19
2022-10-05T16:00:49.456Z,100091.59
2022-10-05T16:03:26.653Z,100091.13
2022-10-05T16:06:18.747Z,100087.81
2022-10-05T16:09:04.850Z,100079.34
2022-10-05T16:11:54.486Z,100091.63
2022-10-05T16:14:33.157Z,100082.94
2022-10-05T16:17:13.988Z,100083.28
2022-10-05T16:19:50.733Z,100087.88
2022-10-05T16:22:25.554Z,100079.94
2022-10-05T16:25:09.532Z,100083.06
2022-10-05T16:27:52.519Z,100077.38
2022-10-05T16:30:24.181Z,100079.28
2022-10-05T16:32:59.526Z,100076.25
2022-10-05T16:35:44.258Z,100088.13
2022-10-05T16:38:25.637Z,100092.56
2022-10-05T16:41:02.413Z,100098.41
2022-10-05T16:43:45.763Z,100107.25
2022-10-05T16:46:22.498Z,100106.91
2022-10-05T16:48:59.747Z,100101.22
2022-10-05T16:51:33.120Z,100113.19
2022-10-05T16:54:11.652Z,100110.38
2022-10-05T16:56:44.366Z,100115.38
2022-10-05T16:59:44.535Z,100121.44
2022-10-05T17:02:22.726Z,100113.34
2022-10-05T17:05:02.035Z,100123.53
2022-10-05T17:07:54.152Z,100123.84
2022-10-05T17:10:40.170Z,100124.75
2022-10-05T17:13:22.506Z,100131.94
2022-10-05T17:16:04.059Z,100137.59
2022-10-05T17:19:03.379Z,100132.16
2022-10-05T17:21:38.382Z,100140.69
2022-10-05T17:24:24.330Z,100144.31
2022-10-05T17:27:02.809Z,99997.75
2022-10-05T17:29:47.828Z,100151.03
2022-10-05T17:32:54.822Z,100157.78
2022-10-05T17:35:42.176Z,100156.38
2022-10-05T17:38:22.755Z,100166.47
2022-10-05T17:41:14.741Z,100163.00
2022-10-05T17:44:24.721Z,100175.44
2022-10-05T17:46:55.059Z,100171.06
2022-10-05T17:49:39.642Z,100183.56
2022-10-05T17:52:40.601Z,100192.34
2022-10-05T17:55:26.632Z,100199.47
2022-10-05T17:57:58.547Z,100211.84
2022-10-05T18:00:41.910Z,100223.06
2022-10-05T18:03:40.668Z,100214.84
2022-10-05T18:06:35.250Z,100218.69
2022-10-05T18:09:20.792Z,100227.34
2022-10-05T18:12:17.902Z,100226.28
2022-10-05T18:15:00.969Z,100226.84
2022-10-05T18:17:41.939Z,100233.91
2022-10-05T18:20:18.226Z,100233.41
2022-10-05T18:22:46.702Z,100244.47
2022-10-05T18:25:27.058Z,100249.34
2022-10-05T18:28:24.305Z,100256.69
2022-10-05T18:31:04.988Z,100254.53
2022-10-05T18:33:50.049Z,100270.75
2022-10-05T18:36:37.526Z,100264.69
2022-10-05T18:39:19.137Z,100265.28
2022-10-05T18:41:59.748Z,100270.41
2022-10-05T18:44:39.350Z,100274.41
2022-10-05T18:47:14.544Z,100277.97
2022-10-05T18:50:03.886Z,100282.41
2022-10-05T18:52:42.564Z,100282.56
2022-10-05T18:55:18.258Z,100291.22
2022-10-05T18:58:08.469Z,100293.72
2022-10-05T19:01:06.337Z,100290.00
2022-10-05T19:03:39.578Z,100295.66
2022-10-05T19:06:14.734Z,100294.28
2022-10-05T19:08:49.589Z,100302.09
2022-10-05T19:11:24.612Z,100299.31
2022-10-05T19:14:01.602Z,100306.16
2022-10-05T19:16:47.934Z,100304.16
2022-10-05T19:19:32.409Z,100312.00
2022-10-05T19:22:07.009Z,100313.94
2022-10-05T19:24:47.469Z,100295.00
2022-10-05T19:27:25.469Z,100321.72
2022-10-05T19:30:13.433Z,100320.41
2022-10-05T19:32:52.818Z,100337.25
2022-10-05T19:35:27.943Z,100332.41
2022-10-05T19:38:15.219Z,100336.38
2022-10-05T19:40:56.187Z,100341.28
2022-10-05T19:43:37.782Z,100334.84
2022-10-05T19:46:19.091Z,100345.50
2022-10-05T19:48:49.410Z,100342.34
2022-10-05T19:51:27.543Z,100299.66
2022-10-05T19:53:57.006Z,100322.91
2022-10-05T19:56:26.363Z,100346.94
2022-10-05T19:58:56.325Z,100359.59
2022-10-05T20:01:27.343Z,100355.56
2022-10-05T20:04:13.394Z,100367.25
2022-10-05T20:07:02.195Z,100375.91
2022-10-05T20:09:56.648Z,100373.19
2022-10-05T20:12:51.602Z,100381.25
2022-10-05T20:15:57.286Z,100388.81
2022-10-05T20:19:08.020Z,100389.25
2022-10-05T20:21:59.665Z,100388.53
2022-10-05T20:24:51.070Z,100405.56
2022-10-05T20:27:47.521Z,100407.63
2022-10-05T20:30:35.380Z,100405.63
2022-10-05T20:33:26.532Z,100405.97
2022-10-05T20:36:15.842Z,100415.47
2022-10-05T20:39:03.757Z,100414.28
2022-10-05T20:41:51.700Z,100422.03
2022-10-05T20:44:39.691Z,100417.19
2022-10-05T20:47:27.599Z,100426.69
2022-10-05T20:50:16.042Z,100432.03
2022-10-05T20:53:11.005Z,100435.19
2022-10-05T20:56:02.276Z,100445.97
2022-10-05T20:58:50.182Z,100441.50
2022-10-05T21:01:38.124Z,100443.41
2022-10-05T21:04:30.157Z,100442.59
2022-10-05T21:07:20.963Z,100450.28
2022-10-05T21:10:10.789Z,100456.28
2022-10-05T21:13:02.689Z,100453.00
2022-10-05T21:15:50.592Z,100457.50
2022-10-05T21:18:38.473Z,100455.03
2022-10-05T21:21:27.724Z,100463.63
2022-10-05T21:24:17.221Z,100469.25
2022-10-05T21:27:07.162Z,100474.16
2022-10-05T21:29:55.038Z,100473.69
2022-10-05T21:32:44.590Z,100482.81
2022-10-05T21:35:32.911Z,100475.50
2022-10-05T21:38:20.837Z,100480.81
2022-10-05T21:41:09.530Z,100488.38
2022-10-05T21:43:58.765Z,100486.63
2022-10-05T21:46:47.797Z,100403.97
2022-10-05T21:49:36.949Z,100501.63
2022-10-05T21:52:24.895Z,100493.00
2022-10-05T21:55:12.975Z,100502.22
2022-10-05T21:58:02.127Z,100501.50
2022-10-05T22:00:51.381Z,100505.41
2022-10-05T22:03:39.376Z,100502.69
2022-10-05T22:06:27.334Z,100505.41
2022-10-05T22:09:15.225Z,100507.97
2022-10-05T22:12:03.116Z,100511.06
2022-10-05T22:14:51.049Z,100428.28
2022-10-05T22:17:42.094Z,100519.78
2022-10-05T22:20:31.884Z,100518.22
2022-10-05T22:23:20.363Z,100523.25
2022-10-05T22:26:10.133Z,100530.41
2022-10-05T22:28:58.580Z,100538.06
2022-10-05T22:31:48.675Z,100535.06
2022-10-05T22:34:38.122Z,100535.94
2022-10-05T22:37:26.033Z,100539.06
2022-10-05T22:40:13.918Z,100541.09
2022-10-05T22:43:01.823Z,100540.72
2022-10-05T22:45:50.018Z,100543.13
2022-10-05T22:48:38.362Z,100533.88
2022-10-05T22:51:27.633Z,100538.09
2022-10-05T22:54:15.549Z,100541.22
2022-10-05T22:57:03.434Z,100540.25
2022-10-05T22:59:51.313Z,100538.03
2022-10-05T23:02:40.721Z,100520.41
2022-10-05T23:05:28.664Z,100532.72
2022-10-05T23:08:17.904Z,100528.22
2022-10-05T23:11:06.947Z,100534.31
2022-10-05T23:13:56.750Z,100530.19
2022-10-05T23:16:44.656Z,100538.19
2022-10-05T23:19:32.603Z,100548.72
2022-10-05T23:22:21.697Z,100560.69
2022-10-05T23:25:11.088Z,100555.38
2022-10-05T23:27:58.986Z,100557.28
2022-10-05T23:30:46.942Z,100554.59
2022-10-05T23:33:35.699Z,100565.59
2022-10-05T23:36:25.270Z,100551.84
2022-10-05T23:39:13.649Z,100567.66
2022-10-05T23:42:02.904Z,100574.47
2022-10-05T23:44:50.902Z,100565.50
2022-10-05T23:47:38.868Z,100574.53
2022-10-05T23:50:26.930Z,100569.81
2022-10-05T23:53:15.664Z,100567.22
2022-10-05T23:56:04.588Z,100578.81
2022-10-05T23:58:53.830Z,100583.69
